Aérodrome :
LOGIN :

S'inscrire | Disclaimer

   EN    FR    IT 

 










Légende :    VFR   VFR Marginal   IFR   IFR Intensif   IFR Très Intensif
Visi : 
Plafond : 
>= 8 km
>= 3000ft
5 à 8 km
1000 à 3000 ft
1500m à 5 km
500 à 1000 ft
800 à 1500m
200 à 500 ft
< 800m
< 200 ft
Symboles :   Orages  Brouillard  Fortes neiges  Fortes précipitations  Vent > 20 kt
SIGMETs :   Divers  Orages  Givrage  Turbulence  Onde Orograph.  Cendres Volcan.






- Altitude de l'aérodrome : 142 ft
- Code IATA : FLR


LIRQ - Firenze Amerigo Vespucci

DERNIER METAR :
  • 121250Z 21004KT 9999 SCT020 06/03 Q1004

METARs EXPIRÉS :
  • 121220Z 23003KT 190V250 9999 BKN020 06/03 Q1004
  • 121150Z 15005KT 9999 BKN020 05/03 Q1004
  • 121120Z 18004KT 140V240 9999 BKN020 06/04 Q1004
  • 121050Z 24004KT 210V280 9999 FEW015 BKN025 05/04 Q1004
  • 121020Z 17005KT 9999 FEW015 BKN025 05/04 Q1004

TAF TAF LIRQ
Valide du 12 à 12h jusqu'au 13 à 12h UTC


121100Z 1212/1312 04007KT 9999 SCT030
TEMPO 1300/1312 4000 RA



MET'MAP, la Météo Aéronautique d'un coup d'oeil ! - Copyright ORBIFLY Décembre 2007 - Disclaimer

ORBIFLY MET'MAP TEAM :

Programmation & Développement : Alexandra Zaïnal
Sur une idée originale de : Baudouin d'Aumeries
Assistance à la programmation : Marc-Olivier Méhu
Soutien technique & logistique : Manuel Goepfert

Contact : metmap@orbifly.com




SOURCES & CREDITS :

   NOAA